.
WxDataArchive / Data Records for 2011-07-02
2011-07-01 July 2011 2011-07-03

Data Records for Saturday, 02 July 2011

Time	Temp	Chill	HIndex	Humid	Dewpt	 Wind 	HiWind	WindDir	Rain 	Barom 
-----	----	-----	------	-----	-----	------	------	-------	-----	----- 
00:00	71.3	71.3	71.3	83	65.9	0	0	---	0.00	29.996 
00:05	71.1	71.1	71.1	83	65.7	0	0	---	0.00	29.996 
00:10	71.1	71.1	71.1	83	65.7	0	0	---	0.00	29.996 
00:15	70.9	70.9	70.9	84	65.8	0	0	---	0.00	30.001 
00:20	70.8	70.8	70.8	84	65.7	0	0	---	0.00	30.001 
00:25	70.6	70.6	70.6	84	65.5	0	0	---	0.00	30.001 
00:30	70.4	70.4	70.4	84	65.3	0	0	---	0.00	29.998 
00:35	70.3	70.3	70.3	85	65.6	0	0	---	0.00	29.998 
00:40	70.3	70.3	70.3	85	65.6	0	0	---	0.00	29.998 
00:45	70.3	70.3	70.3	85	65.6	0	0	---	0.00	29.999 
00:50	70.1	70.1	70.1	86	65.7	0	0	---	0.00	29.999 
00:55	69.9	69.9	69.9	86	65.5	0	0	---	0.00	29.999 
01:00	69.9	69.9	69.9	86	65.5	0	0	---	0.00	29.996 
01:05	69.9	69.9	69.9	87	65.8	0	0	---	0.00	29.996 
01:10	69.8	69.8	69.8	87	65.7	0	0	---	0.00	29.996 
01:15	69.8	69.8	69.8	87	65.7	0	0	---	0.00	29.997 
01:20	69.6	69.6	69.6	87	65.6	0	0	---	0.00	29.997 
01:25	69.6	69.6	69.6	87	65.6	0	0	---	0.00	29.997 
01:30	69.4	69.4	69.4	87	65.4	0	0	---	0.00	29.995 
01:35	69.4	69.4	69.4	87	65.4	0	0	---	0.00	29.995 
01:40	69.4	69.4	69.4	88	65.7	0	0	---	0.00	29.995 
01:45	69.3	69.3	69.3	88	65.6	0	0	---	0.00	29.997 
01:50	69.3	69.3	69.3	88	65.6	0	0	---	0.00	29.997 
01:55	69.3	69.3	69.3	88	65.6	0	0	---	0.00	29.997 
02:00	69.3	69.3	69.3	88	65.6	0	0	---	0.00	29.997 
02:05	69.3	69.3	69.3	88	65.6	0	0	---	0.00	29.997 
02:10	69.3	69.3	69.3	88	65.6	0	0	---	0.00	29.997 
02:15	69.3	69.3	69.3	88	65.6	0	0	---	0.00	29.995 
02:20	69.4	69.4	69.4	88	65.7	0	1	112	0.00	29.995 
02:25	69.4	69.4	69.4	88	65.7	0	0	---	0.00	29.995 
02:30	69.4	69.4	69.4	88	65.7	0	0	---	0.00	29.996 
02:35	69.6	69.6	69.6	88	65.9	0	0	---	0.00	29.996 
02:40	69.8	69.8	69.8	87	65.7	0	0	---	0.00	29.996 
02:45	69.8	69.8	69.8	87	65.7	0	0	---	0.00	29.992 
02:50	69.9	69.9	69.9	86	65.5	0	0	---	0.00	29.992 
02:55	70.1	70.1	70.1	86	65.7	0	1	112	0.00	29.992 
03:00	70.3	70.3	70.3	85	65.6	0	1	112	0.00	29.995 
03:05	70.4	70.4	70.4	85	65.7	0	0	---	0.00	29.995 
03:10	70.6	70.6	70.6	85	65.9	0	1	112	0.00	29.995 
03:15	70.8	70.8	70.8	84	65.7	0	2	112	0.00	30.009 
03:20	70.9	70.9	70.9	84	65.8	0	1	112	0.00	30.009 
03:25	71.1	71.1	71.1	83	65.7	0	2	112	0.00	30.009 
03:30	71.3	71.3	71.3	83	65.9	0	1	112	0.00	30.011 
03:35	71.3	71.3	71.3	82	65.5	0	2	112	0.00	30.011 
03:40	71.3	71.3	71.3	82	65.5	0	0	---	0.00	30.011 
03:45	71.3	71.3	71.3	82	65.5	0	0	---	0.00	30.008 
03:50	71.3	71.3	71.3	82	65.5	0	1	112	0.00	30.008 
03:55	71.3	71.3	71.3	82	65.5	0	1	112	0.00	30.008 
04:00	71.3	71.3	71.3	82	65.5	0	1	112	0.00	30.009 
04:05	71.5	71.5	71.5	82	65.7	0	1	112	0.00	30.009 
04:10	71.5	71.5	71.5	82	65.7	0	2	112	0.00	30.009 
04:15	71.5	71.5	71.5	82	65.7	0	2	112	0.00	30.006 
04:20	71.6	71.6	71.6	82	65.8	0	1	112	0.00	30.006 
04:25	71.6	71.6	71.6	81	65.4	0	2	112	0.00	30.006 
04:30	71.6	71.6	71.6	81	65.4	0	2	112	0.00	30.007 
04:35	71.6	71.6	71.6	81	65.4	0	1	112	0.00	30.007 
04:40	71.6	71.6	71.6	81	65.4	0	2	112	0.00	30.007 
04:45	71.6	71.6	71.6	81	65.4	0	2	112	0.00	30.005 
04:50	71.6	71.6	71.6	81	65.4	0	1	112	0.00	30.005 
04:55	71.8	71.8	71.8	80	65.3	0	2	112	0.00	30.005 
05:00	71.8	71.8	71.8	80	65.3	0	2	112	0.00	29.997 
05:05	71.8	71.8	71.8	80	65.3	0	1	112	0.00	29.997 
05:10	72.0	72.0	72.0	79	65.1	0	1	112	0.00	29.997 
05:15	72.0	72.0	72.0	79	65.1	0	1	112	0.00	29.991 
05:20	72.0	72.0	72.0	79	65.1	0	1	112	0.00	29.991 
05:25	72.1	72.1	72.1	78	64.8	0	1	112	0.00	29.991 
05:30	72.3	72.3	72.3	77	64.7	0	3	112	0.00	29.987 
05:35	72.3	72.3	72.3	77	64.7	0	1	112	0.00	29.987 
05:40	72.5	72.5	72.5	77	64.9	0	2	112	0.00	29.987 
05:45	72.5	72.5	72.5	77	64.9	0	2	112	0.00	29.984 
05:50	72.5	72.5	72.5	77	64.9	0	1	112	0.00	29.984 
05:55	72.7	72.7	72.7	76	64.7	0	2	112	0.00	29.984 
06:00	72.7	72.7	72.7	76	64.7	0	2	112	0.00	29.986 
06:05	72.7	72.7	72.7	76	64.7	0	1	112	0.00	29.986 
06:10	72.8	72.8	72.8	76	64.8	0	1	112	0.00	29.986 
06:15	72.7	72.7	72.7	77	65.1	0	0	---	0.00	29.987 
06:20	72.7	72.7	72.7	77	65.1	0	1	112	0.00	29.987 
06:25	72.7	72.7	72.7	77	65.1	0	2	112	0.00	29.987 
06:30	72.8	72.8	72.8	77	65.2	0	1	112	0.00	29.991 
06:35	72.7	72.7	72.7	77	65.1	0	0	---	0.00	29.991 
06:40	72.7	72.7	72.7	77	65.1	0	0	---	0.00	29.991 
06:45	72.7	72.7	72.7	77	65.1	0	0	---	0.00	29.988 
06:50	72.7	72.7	72.7	78	65.4	0	0	---	0.00	29.988 
06:55	72.7	72.7	72.7	78	65.4	0	1	112	0.00	29.988 
07:00	72.7	72.7	72.7	78	65.4	0	0	---	0.00	29.982 
07:05	72.8	72.8	72.8	78	65.5	0	1	112	0.00	29.982 
07:10	72.8	72.8	72.8	79	65.9	0	1	112	0.00	29.982 
07:15	73.0	73.0	73.0	79	66.1	0	1	112	0.00	29.987 
07:20	73.0	73.0	73.0	79	66.1	0	1	112	0.00	29.987 
07:25	73.2	73.2	73.2	79	66.3	0	1	112	0.00	29.987 
07:30	73.3	73.3	73.3	79	66.4	0	2	112	0.00	29.996 
07:35	73.5	73.5	73.5	78	66.2	1	2	112	0.00	29.996 
07:40	73.7	73.7	73.7	78	66.4	0	2	112	0.00	29.996 
07:45	73.9	73.9	73.9	78	66.6	1	2	112	0.00	30.001 
07:50	73.9	73.9	73.9	78	66.6	0	3	135	0.00	30.001 
07:55	74.2	74.2	74.2	78	66.9	0	1	135	0.00	30.001 
08:00	74.6	74.6	74.6	78	67.3	0	2	135	0.00	30.002 
08:05	74.7	74.7	74.7	77	67.0	1	2	135	0.00	30.002 
08:10	75.1	75.1	76.1	77	67.4	0	1	135	0.00	30.002 
08:15	75.4	75.4	76.5	76	67.3	0	2	135	0.00	30.001 
08:20	75.8	75.8	77.0	76	67.7	0	2	135	0.00	30.001 
08:25	76.1	76.1	77.4	76	68.0	1	2	135	0.00	30.001 
08:30	76.5	76.5	78.0	75	68.0	1	3	135	0.00	29.996 
08:35	76.8	76.8	78.4	74	67.9	0	2	292	0.00	29.996 
08:40	77.2	77.2	79.0	74	68.3	0	2	292	0.00	29.996 
08:45	77.4	77.4	79.3	73	68.0	1	4	292	0.00	29.992 
08:50	77.6	77.6	79.5	73	68.2	1	4	292	0.00	29.992 
08:55	77.6	77.6	79.5	73	68.2	1	3	292	0.00	29.992 
09:00	77.7	77.7	79.7	73	68.3	1	3	315	0.00	29.989 
09:05	77.9	77.9	80.0	74	68.9	0	2	315	0.00	29.989 
09:10	77.9	77.9	80.0	74	68.9	0	1	315	0.00	29.989 
09:15	77.9	77.9	80.0	74	68.9	0	2	315	0.00	29.989 
09:20	78.1	78.1	80.3	74	69.1	0	2	315	0.00	29.989 
09:25	78.1	78.1	80.3	74	69.1	0	2	315	0.00	29.989 
09:30	78.1	78.1	80.3	74	69.1	1	2	315	0.00	29.988 
09:35	78.1	78.1	80.3	74	69.1	1	3	315	0.00	29.988 
09:40	77.9	77.9	80.0	74	68.9	1	3	315	0.00	29.988 
09:45	77.9	77.9	80.0	74	68.9	0	3	315	0.00	29.987 
09:50	77.9	77.9	80.0	74	68.9	1	3	315	0.00	29.987 
09:55	77.9	77.9	80.0	74	68.9	1	2	315	0.00	29.987 
10:00	77.9	77.9	80.0	74	68.9	1	4	315	0.00	29.992 
10:05	78.1	78.1	80.3	74	69.1	1	3	270	0.00	29.992 
10:10	78.1	78.1	80.3	74	69.1	1	2	270	0.00	29.992 
10:15	78.1	78.1	80.3	74	69.1	1	3	270	0.00	29.993 
10:20	78.1	78.1	80.3	74	69.1	1	2	338	0.00	29.993 
10:25	78.3	78.3	80.6	75	69.7	0	1	338	0.00	29.993 
10:30	78.5	78.5	80.9	74	69.5	0	3	338	0.00	29.994 
10:35	78.6	78.6	81.1	75	70.0	0	2	315	0.00	29.994 
10:40	79.0	79.0	81.8	75	70.4	0	1	315	0.00	29.994 
10:45	79.4	79.4	82.4	74	70.4	1	3	315	0.00	30.007 
10:50	79.8	79.8	83.0	73	70.4	1	3	315	0.00	30.007 
10:55	80.7	80.7	84.4	72	70.8	1	3	315	0.00	30.007 
11:00	81.2	81.2	85.2	71	70.9	0	1	315	0.00	30.007 
11:05	81.8	81.8	86.5	72	71.9	1	3	315	0.00	30.007 
11:10	82.6	82.6	87.3	69	71.4	0	2	315	0.00	30.007 
11:15	83.4	83.4	88.9	69	72.1	0	2	315	0.00	30.005 
11:20	84.3	84.3	90.5	68	72.6	1	3	315	0.00	30.005 
11:25	84.7	84.7	90.6	66	72.1	1	3	315	0.00	30.005 
11:30	85.3	85.3	91.9	66	72.6	1	2	315	0.00	30.003 
11:35	85.9	85.9	92.8	65	72.7	1	3	315	0.00	30.003 
11:40	86.3	86.3	93.6	65	73.1	0	2	315	0.00	30.003 
11:45	87.0	87.0	94.8	64	73.3	1	3	315	0.00	29.998 
11:50	87.2	87.2	94.3	62	72.6	2	5	248	0.00	29.998 
11:55	87.8	87.8	96.1	63	73.6	1	4	90	0.00	29.998 
12:00	88.2	88.2	96.5	62	73.5	0	2	90	0.00	29.997 
12:05	88.6	88.6	97.5	62	73.9	1	6	68	0.00	29.997 
12:10	88.6	88.6	96.5	60	72.9	0	2	90	0.00	29.997 
12:15	88.0	88.0	96.1	62	73.3	1	4	270	0.00	29.996 
12:20	88.2	88.2	96.5	62	73.5	1	4	90	0.00	29.996 
12:25	89.0	89.0	98.4	62	74.3	1	5	270	0.00	29.996 
12:30	89.5	89.5	99.0	61	74.2	1	3	248	0.00	29.988 
12:35	89.5	89.5	98.5	60	73.7	1	3	248	0.00	29.988 
12:40	89.7	89.7	99.5	61	74.4	1	3	270	0.00	29.988 
12:45	90.1	90.1	99.9	60	74.3	1	3	270	0.00	29.983 
12:50	90.3	90.3	99.3	58	73.5	1	3	270	0.00	29.983 
12:55	91.0	91.0	101.5	59	74.6	1	2	270	0.00	29.983 
13:00	91.4	91.4	102.5	59	75.0	1	2	68	0.00	29.983 
13:05	91.6	91.6	100.5	55	73.1	1	4	338	0.00	29.983 
13:10	92.1	92.1	102.9	57	74.6	0	2	270	0.00	29.983 
13:15	92.5	92.5	102.6	55	73.9	1	3	270	0.00	29.974 
13:20	92.5	92.5	102.0	54	73.4	2	4	292	0.00	29.974 
13:25	91.8	91.8	101.6	56	73.8	2	5	270	0.00	29.974 
13:30	92.1	92.1	103.6	58	75.2	1	3	315	0.00	29.969 
13:35	92.5	92.5	102.6	55	73.9	1	4	270	0.00	29.969 
13:40	92.7	92.7	103.8	56	74.7	0	2	270	0.00	29.969 
13:45	92.7	92.7	102.5	54	73.6	1	3	248	0.00	29.966 
13:50	92.5	92.5	102.0	54	73.4	1	4	270	0.00	29.966 
13:55	92.5	92.5	100.2	51	71.7	1	4	270	0.00	29.966 
14:00	92.9	92.9	101.7	52	72.6	1	3	270	0.00	29.966 
14:05	93.2	93.2	101.7	51	72.3	2	4	270	0.00	29.966 
14:10	92.9	92.9	101.7	52	72.6	1	3	315	0.00	29.966 
14:15	92.9	92.9	104.3	56	74.8	0	3	248	0.00	29.962 
14:20	93.2	93.2	102.4	52	72.9	2	6	270	0.00	29.962 
14:25	93.4	93.4	104.8	55	74.8	1	4	270	0.00	29.962 
14:30	93.8	93.8	102.4	50	72.3	1	4	270	0.00	29.954 
14:35	94.0	94.0	102.3	49	71.9	2	5	270	0.00	29.954 
14:40	94.0	94.0	101.6	48	71.3	2	4	248	0.00	29.954 
14:45	93.8	93.8	102.4	50	72.3	2	4	248	0.00	29.955 
14:50	94.0	94.0	104.2	52	73.6	1	4	270	0.00	29.955 
14:55	94.5	94.5	104.0	50	72.9	2	4	270	0.00	29.955 
15:00	94.3	94.3	102.9	49	72.2	2	4	270	0.00	29.950 
15:05	94.0	94.0	102.3	49	71.9	2	4	270	0.00	29.950 
15:10	94.0	94.0	102.9	50	72.5	1	5	270	0.00	29.950 
15:15	93.8	93.8	102.4	50	72.3	2	7	270	0.00	29.948 
15:20	93.6	93.6	102.0	50	72.1	1	4	292	0.00	29.948 
15:25	93.2	93.2	101.1	50	71.7	2	5	292	0.00	29.948 
15:30	93.6	93.6	102.0	50	72.1	2	5	292	0.00	29.947 
15:35	94.0	94.0	101.6	48	71.3	2	4	270	0.00	29.947 
15:40	94.3	94.3	103.6	50	72.8	1	4	248	0.00	29.947 
15:45	94.3	94.3	102.3	48	71.5	1	3	248	0.00	29.941 
15:50	94.3	94.3	102.9	49	72.2	2	4	248	0.00	29.941 
15:55	94.7	94.7	103.2	48	71.9	1	4	270	0.00	29.941 
16:00	94.7	94.7	103.2	48	71.9	1	5	270	0.00	29.936 
16:05	94.9	94.9	103.0	47	71.5	2	4	270	0.00	29.936 
16:10	95.1	95.1	103.4	47	71.6	2	4	292	0.00	29.936 
16:15	95.1	95.1	103.4	47	71.6	2	7	248	0.00	29.933 
16:20	95.1	95.1	103.4	47	71.6	2	9	270	0.00	29.933 
16:25	95.1	95.1	104.1	48	72.3	2	5	270	0.00	29.933 
16:30	95.1	95.1	102.7	46	71.0	2	5	270	0.00	29.931 
16:35	94.9	94.9	103.0	47	71.5	1	3	270	0.00	29.931 
16:40	95.1	95.1	102.1	45	70.4	2	7	315	0.00	29.931 
16:45	94.7	94.7	101.9	46	70.6	2	5	270	0.00	29.930 
16:50	94.3	94.3	101.7	47	70.9	2	5	270	0.00	29.930 
16:55	94.3	94.3	102.9	49	72.2	1	4	270	0.00	29.930 
17:00	94.5	94.5	102.1	47	71.1	2	5	248	0.00	29.920 
17:05	94.7	94.7	101.9	46	70.6	2	4	270	0.00	29.920 
17:10	94.9	94.9	102.3	46	70.8	2	5	292	0.00	29.920 
17:15	95.1	95.1	102.7	46	71.0	2	6	270	0.00	29.916 
17:20	94.9	94.9	102.3	46	70.8	1	5	270	0.00	29.916 
17:25	94.9	94.9	103.0	47	71.5	1	4	270	0.00	29.916 
17:30	95.1	95.1	102.7	46	71.0	1	4	270	0.00	29.905 
17:35	95.1	95.1	102.1	45	70.4	2	5	270	0.00	29.905 
17:40	94.7	94.7	101.3	45	70.0	2	5	270	0.00	29.905 
17:45	94.5	94.5	100.9	45	69.8	3	5	270	0.00	29.894 
17:50	94.5	94.5	101.5	46	70.5	1	3	248	0.00	29.894 
17:55	94.5	94.5	102.1	47	71.1	2	6	292	0.00	29.894 
18:00	94.3	94.3	101.0	46	70.3	2	5	270	0.00	29.890 
18:05	94.0	94.0	101.6	48	71.3	2	5	270	0.00	29.890 
18:10	93.6	93.6	100.8	48	70.9	2	5	270	0.00	29.890 
18:15	93.4	93.4	100.9	49	71.3	2	4	292	0.00	29.886 
18:20	93.4	93.4	100.9	49	71.3	2	6	270	0.00	29.886 
18:25	92.9	92.9	99.9	49	70.9	1	4	292	0.00	29.886 
18:30	92.5	92.5	99.0	49	70.5	2	6	292	0.00	29.868 
18:35	92.3	92.3	99.2	50	70.9	2	4	292	0.00	29.868 
18:40	92.3	92.3	99.2	50	70.9	2	4	248	0.00	29.868 
18:45	91.8	91.8	98.7	51	71.0	1	5	270	0.00	29.878 
18:50	91.4	91.4	97.8	51	70.7	2	3	270	0.00	29.878 
18:55	91.2	91.2	96.9	50	69.9	2	4	270	0.00	29.878 
19:00	91.0	91.0	96.5	50	69.7	2	5	270	0.00	29.886 
19:05	91.0	91.0	96.5	50	69.7	1	3	270	0.00	29.886 
19:10	90.7	90.7	96.4	51	70.0	1	3	270	0.00	29.886 
19:15	90.5	90.5	96.5	52	70.4	1	4	270	0.00	29.915 
19:20	90.3	90.3	96.1	52	70.2	2	3	270	0.00	29.915 
19:25	90.3	90.3	96.1	52	70.2	2	5	292	0.00	29.915 
19:30	90.1	90.1	95.2	51	69.5	2	6	270	0.00	29.921 
19:35	89.9	89.9	94.9	51	69.3	3	7	270	0.00	29.921 
19:40	88.8	88.8	90.6	45	64.7	6	12	270	0.00	29.921 
19:45	84.3	84.3	84.5	45	60.6	7	14	270	0.00	29.954 
19:50	81.6	81.6	82.1	48	60.0	7	14	270	0.00	29.954 
19:55	79.9	79.9	80.7	50	59.6	7	14	292	0.00	29.954 
20:00	79.2	79.2	80.1	50	58.9	5	9	292	0.00	29.950 
20:05	78.8	78.8	79.9	51	59.1	4	10	270	0.00	29.950 
20:10	78.6	78.6	79.7	51	58.9	3	6	270	0.00	29.950 
20:15	78.5	78.5	79.6	51	58.8	2	6	292	0.00	29.902 
20:20	78.3	78.3	79.5	51	58.7	2	4	292	0.00	29.902 
20:25	78.3	78.3	79.5	51	58.7	2	4	292	0.00	29.902 
20:30	78.3	78.3	79.6	52	59.2	1	3	292	0.00	29.915 
20:35	78.1	78.1	79.4	52	59.0	2	5	270	0.00	29.915 
20:40	78.3	78.3	79.5	51	58.7	2	5	292	0.00	29.915 
20:45	78.1	78.1	79.3	50	57.9	3	5	270	0.00	29.929 
20:50	77.7	77.7	79.1	51	58.1	3	7	270	0.00	29.929 
20:55	77.7	77.7	79.0	50	57.6	3	5	270	0.00	29.929 
21:00	77.7	77.7	79.0	50	57.6	4	9	270	0.00	29.902 
21:05	78.1	78.1	79.4	51	58.5	6	10	270	0.00	29.902 
21:10	77.6	77.6	79.1	54	59.6	3	7	270	0.00	29.902 
21:15	76.3	76.3	78.2	59	60.9	2	6	292	0.00	29.914 
21:20	75.1	75.1	77.3	62	61.2	2	5	292	0.00	29.914 
21:25	74.7	74.7	74.7	64	61.7	3	6	270	0.01	29.914 
21:30	74.4	74.4	74.4	65	61.8	2	5	270	0.00	29.916 
21:35	74.0	74.0	74.0	67	62.3	0	3	270	0.01	29.916 
21:40	73.9	73.9	73.9	66	61.8	0	2	270	0.00	29.916 
21:45	74.4	74.4	74.4	55	57.2	1	3	248	0.00	29.890 
21:50	75.8	75.8	78.0	54	57.9	1	4	248	0.00	29.890 
21:55	77.0	77.0	78.7	52	58.0	1	3	248	0.00	29.890 
22:00	78.3	78.3	79.4	49	57.5	2	5	248	0.00	29.898 
22:05	79.0	79.0	80.1	52	59.8	3	7	270	0.00	29.898 
22:10	78.6	78.6	79.8	53	60.0	4	6	270	0.00	29.898 
22:15	78.5	78.5	79.8	53	59.9	4	6	270	0.00	29.907 
22:20	78.1	78.1	79.5	54	60.1	4	6	270	0.00	29.907 
22:25	77.7	77.7	79.3	56	60.7	3	5	270	0.00	29.907 
22:30	77.2	77.2	78.9	58	61.3	1	3	292	0.00	29.910 
22:35	77.0	77.0	78.7	57	60.6	3	6	292	0.00	29.910 
22:40	77.2	77.2	78.9	57	60.8	4	7	270	0.00	29.910 
22:45	77.2	77.2	78.9	58	61.3	4	9	270	0.00	29.941 
22:50	76.7	76.7	78.5	59	61.3	3	6	270	0.00	29.941 
22:55	76.3	76.3	78.2	61	61.8	3	7	270	0.00	29.941 
23:00	76.0	76.0	78.0	62	62.0	2	4	292	0.00	29.943 
23:05	75.6	75.6	77.6	63	62.1	3	5	315	0.00	29.943 
23:10	75.3	75.3	77.4	64	62.3	1	3	270	0.00	29.943 
23:15	74.9	74.9	74.9	65	62.3	1	4	270	0.00	29.946 
23:20	74.7	74.7	74.7	66	62.6	1	4	315	0.00	29.946 
23:25	74.4	74.4	74.4	67	62.7	1	5	270	0.00	29.946 
23:30	74.2	74.2	74.2	68	62.9	1	2	270	0.00	29.942 
23:35	74.0	74.0	74.0	68	62.8	1	3	270	0.00	29.942 
23:40	73.9	73.9	73.9	68	62.7	0	3	270	0.00	29.942 
23:45	73.9	73.9	73.9	68	62.7	1	3	270	0.00	29.950 
23:50	73.9	73.9	73.9	67	62.2	1	4	270	0.00	29.950 
23:55	73.9	73.9	73.9	67	62.2	0	2	270	0.00	29.950 

CoCoRaHS
IN-AL-39
A2 Web Hosting
Creative Commons License
GoDaddy
search engine by freefind advanced

loaded 2018-11-15 13:45:54 • last modified 2010-11-18 10:43:29
Privacy PolicyDisclaimer
• wx.awcolley.com is powered by PmWiki v.2002016 •
• all content (unless otherwise noted) © 2018 A W Colley